Capitol Logistics 968

Operating for DHL



KBWI
Baltimore/Washington International Airport
Baltimore, Maryland
EGNX
East Midlands Airport
Derby,

Activity Log

Date Flight Route Aircraft Duration
No Flights Yet

Route Details

Aircraft Information
Group: Trans-Atlantic Ops
Types: A31F,B744,B763,MD11
Route Data
Demand: M
Distance: 3098nm
Duration: 7h 45m
Recm'd Route: PALEO3 SIE J55 DRIFT Q439 RIFLE Q220 LARIE BRADD N319A ELSIR 5050N 5240N 5430N 5420N DOGAL BEXET DEXEN UY124 AMPIT
Origin Wx: KBWI 270554Z 16004KT 5SM BR OVC004 20/19 A3001 RMK AO2 SLP161 T02000189 10211 20200 58023
Dest. Wx: EGNX 270620Z 26012KT CAVOK 11/04 Q1023
Notes:

Financial History
Total Freight: 0lbs
Average Load: 0lbs/flt
Fuel Used: 0lbs
Avg. Fuel Used: 0lbs/flt
Fuel Expense: $0
Avg. Fuel Expense: $0
Avg. Fuel Cost: $0/lbs
Total Gross Income: $0
Pilot Pay: $0
Total Expenses: $0
Total Revenue: $0
Average Revenue: $0